createdAt,value
2022-09-10T00:00:43.422Z,1014.53
2022-09-10T00:05:45.611Z,1014.42
2022-09-10T00:10:44.912Z,1014.30
2022-09-10T00:15:46.003Z,1014.33
2022-09-10T00:20:47.174Z,1014.37
2022-09-10T00:25:48.362Z,1014.40
2022-09-10T00:30:50.452Z,1014.39
2022-09-10T00:35:49.570Z,1014.33
2022-09-10T00:40:50.663Z,1014.37
2022-09-10T00:45:51.912Z,1014.42
2022-09-10T00:50:53.171Z,1014.62
2022-09-10T00:55:53.291Z,1014.52
2022-09-10T01:00:54.505Z,1014.50
2022-09-10T01:05:56.587Z,1014.58
2022-09-10T01:10:56.668Z,1014.43
2022-09-10T01:15:55.875Z,1014.20
2022-09-10T01:20:56.960Z,1014.38
2022-09-10T01:25:58.130Z,1014.41
2022-09-10T01:30:59.205Z,1014.39
2022-09-10T01:36:00.373Z,1014.42
2022-09-10T01:41:01.484Z,1014.44
2022-09-10T01:46:02.740Z,1014.46
2022-09-10T01:51:03.976Z,1014.49
2022-09-10T01:56:05.218Z,1014.43
2022-09-10T02:01:06.537Z,1014.29
2022-09-10T02:06:07.704Z,1014.36
2022-09-10T02:11:08.885Z,1014.27
2022-09-10T02:16:10.372Z,1014.31
2022-09-10T02:21:08.447Z,1014.28
2022-09-10T02:26:09.955Z,1014.11
2022-09-10T02:31:10.118Z,1014.01
2022-09-10T02:36:09.261Z,1013.97
2022-09-10T02:41:10.473Z,1013.87
2022-09-10T02:46:12.587Z,1013.90
2022-09-10T02:51:11.749Z,1013.90
2022-09-10T02:56:12.881Z,1014.01
2022-09-10T03:01:14.096Z,1013.97
2022-09-10T03:06:14.296Z,1013.97
2022-09-10T03:11:15.488Z,1014.11
2022-09-10T03:16:16.804Z,1014.20
2022-09-10T03:21:18.034Z,1014.27
2022-09-10T03:26:19.121Z,1014.26
2022-09-10T03:31:20.310Z,1014.28
2022-09-10T03:36:22.452Z,1014.50
2022-09-10T03:41:21.701Z,1014.33
2022-09-10T03:46:22.955Z,1014.33
2022-09-10T03:51:24.214Z,1014.38
2022-09-10T03:56:25.495Z,1014.55
2022-09-10T04:01:26.850Z,1014.58
2022-09-10T04:06:27.925Z,1014.54
2022-09-10T04:11:29.029Z,1014.42
2022-09-10T04:16:30.143Z,1014.35
2022-09-10T04:21:31.401Z,1014.42
2022-09-10T04:26:33.525Z,1014.45
2022-09-10T04:31:32.760Z,1014.59
2022-09-10T04:36:34.005Z,1014.77
2022-09-10T04:41:36.107Z,1014.74
2022-09-10T04:46:35.224Z,1014.56
2022-09-10T04:51:36.404Z,1014.60
2022-09-10T04:56:38.579Z,1014.60
2022-09-10T05:01:37.686Z,1014.60
2022-09-10T05:06:38.795Z,1014.71
2022-09-10T05:11:39.967Z,1014.67
2022-09-10T05:16:42.165Z,1014.65
2022-09-10T05:21:41.239Z,1014.78
2022-09-10T05:26:42.335Z,1014.76
2022-09-10T05:31:43.451Z,1014.69
2022-09-10T05:36:44.521Z,1014.74
2022-09-10T05:41:45.761Z,1014.78
2022-09-10T05:46:47.863Z,1014.76
2022-09-10T05:51:47.075Z,1014.60
2022-09-10T05:56:48.296Z,1014.65
2022-09-10T06:01:50.435Z,1014.60
2022-09-10T06:06:49.698Z,1014.72
2022-09-10T06:11:50.779Z,1014.84
2022-09-10T06:16:52.174Z,1014.95
2022-09-10T06:21:54.317Z,1014.96
2022-09-10T06:26:53.418Z,1014.89
2022-09-10T06:31:54.707Z,1014.98
2022-09-10T06:36:55.874Z,1014.98
2022-09-10T06:41:57.995Z,1014.97
2022-09-10T06:47:39.420Z,1015.05
2022-09-10T06:51:57.148Z,1014.99
2022-09-10T06:57:00.260Z,1015.09
2022-09-10T07:01:59.395Z,1015.25
2022-09-10T07:07:00.676Z,1015.27
2022-09-10T07:12:03.747Z,1015.21
2022-09-10T07:17:03.837Z,1015.16
2022-09-10T07:22:03.920Z,1015.26
2022-09-10T07:27:03.008Z,1015.45
2022-09-10T07:32:04.140Z,1015.51
2022-09-10T07:37:05.250Z,1015.51
2022-09-10T07:42:06.346Z,1015.63
2022-09-10T07:47:07.635Z,1015.47
2022-09-10T07:52:09.771Z,1015.53
2022-09-10T07:57:08.858Z,1015.61
2022-09-10T08:02:10.008Z,1015.57
2022-09-10T08:07:12.089Z,1015.69
2022-09-10T08:12:12.187Z,1015.77
2022-09-10T08:17:11.281Z,1015.88
2022-09-10T08:22:13.620Z,1015.95
2022-09-10T08:27:12.873Z,1015.93
2022-09-10T08:32:13.994Z,1016.03
2022-09-10T08:37:15.137Z,1016.00
2022-09-10T08:42:22.123Z,1016.06
2022-09-10T08:47:18.216Z,1016.03
2022-09-10T08:52:17.454Z,1016.07
2022-09-10T08:57:18.656Z,1016.05
2022-09-10T09:02:44.930Z,1015.96
2022-09-10T09:07:20.711Z,1015.97
2022-09-10T09:12:21.802Z,1016.02
2022-09-10T09:17:26.222Z,1016.06
2022-09-10T09:22:23.328Z,1016.04
2022-09-10T09:27:23.415Z,1016.07
2022-09-10T09:32:24.550Z,1016.12
2022-09-10T09:37:25.637Z,1016.07
2022-09-10T09:42:28.755Z,1016.10
2022-09-10T09:47:27.889Z,1016.10
2022-09-10T09:52:28.988Z,1016.13
2022-09-10T09:57:30.097Z,1016.15
2022-09-10T10:02:31.248Z,1016.23
2022-09-10T10:07:33.393Z,1016.25
2022-09-10T10:12:34.498Z,1016.34
2022-09-10T10:17:35.700Z,1016.29
2022-09-10T10:22:34.825Z,1016.29
2022-09-10T10:27:37.925Z,1016.23
2022-09-10T10:32:38.044Z,1016.16
2022-09-10T10:37:38.130Z,1016.08
2022-09-10T10:42:37.217Z,1016.02
2022-09-10T10:47:39.303Z,1015.91
2022-09-10T10:52:38.454Z,1015.82
2022-09-10T10:57:39.554Z,1015.76
2022-09-10T11:02:40.689Z,1015.62
2022-09-10T11:07:41.993Z,1015.62
2022-09-10T11:12:43.398Z,1015.56
2022-09-10T11:17:44.508Z,1015.55
2022-09-10T11:22:46.736Z,1015.44
2022-09-10T11:27:46.982Z,1015.38
2022-09-10T11:32:46.057Z,1015.46
2022-09-10T11:37:47.154Z,1015.48
2022-09-10T11:42:48.411Z,1015.48
2022-09-10T11:47:49.489Z,1015.33
2022-09-10T11:52:50.705Z,1015.39
2022-09-10T11:57:52.824Z,1015.41
2022-09-10T12:02:51.914Z,1015.39
2022-09-10T12:07:54.011Z,1015.35
2022-09-10T12:12:53.137Z,1015.32
2022-09-10T12:17:54.407Z,1015.36
2022-09-10T12:22:55.486Z,1015.26
2022-09-10T12:27:56.581Z,1015.22
2022-09-10T12:32:57.703Z,1015.18
2022-09-10T12:37:59.810Z,1015.16
2022-09-10T12:42:59.011Z,1015.20
2022-09-10T12:48:01.268Z,1015.27
2022-09-10T12:53:02.375Z,1015.39
2022-09-10T12:58:02.502Z,1015.28
2022-09-10T13:03:02.597Z,1015.27
2022-09-10T13:08:05.969Z,1015.31
2022-09-10T13:13:04.057Z,1015.32
2022-09-10T13:18:03.178Z,1015.28
2022-09-10T13:23:04.389Z,1015.31
2022-09-10T13:28:05.566Z,1015.44
2022-09-10T13:33:06.680Z,1015.35
2022-09-10T13:38:07.779Z,1015.43
2022-09-10T13:43:09.864Z,1015.44
2022-09-10T13:48:08.971Z,1015.50
2022-09-10T13:53:10.081Z,1015.34
2022-09-10T13:58:11.170Z,1015.06
2022-09-10T14:03:13.262Z,1014.91
2022-09-10T14:08:13.367Z,1014.93
2022-09-10T14:13:13.489Z,1014.86
2022-09-10T14:18:12.638Z,1014.74
2022-09-10T14:23:13.776Z,1014.74
2022-09-10T14:28:15.889Z,1014.77
2022-09-10T14:33:15.956Z,1014.72
2022-09-10T14:38:16.075Z,1014.62
2022-09-10T14:43:16.224Z,1014.63
2022-09-10T14:48:15.515Z,1014.63
2022-09-10T14:53:16.625Z,1014.63
2022-09-10T14:58:17.752Z,1014.56
2022-09-10T15:03:18.867Z,1014.49
2022-09-10T15:08:19.991Z,1014.47
2022-09-10T15:13:21.190Z,1014.37
2022-09-10T15:18:22.339Z,1014.33
2022-09-10T15:23:23.469Z,1014.36
2022-09-10T15:28:24.847Z,1014.37
2022-09-10T15:33:27.109Z,1014.37
2022-09-10T15:38:27.395Z,1014.30
2022-09-10T15:43:26.697Z,1014.47
2022-09-10T15:48:27.960Z,1014.49
2022-09-10T15:53:29.160Z,1014.65
2022-09-10T15:58:31.239Z,1014.60
2022-09-10T16:03:30.395Z,1014.52
2022-09-10T16:08:31.690Z,1014.62
2022-09-10T16:13:32.923Z,1014.62
2022-09-10T16:18:34.024Z,1014.64
2022-09-10T16:23:35.274Z,1014.68
2022-09-10T16:28:36.739Z,1014.70
2022-09-10T16:33:35.839Z,1014.77
2022-09-10T16:38:37.175Z,1014.98
2022-09-10T16:43:38.409Z,1014.98
2022-09-10T16:48:39.667Z,1014.87
2022-09-10T16:53:41.899Z,1014.87
2022-09-10T16:58:41.120Z,1014.93
2022-09-10T17:03:42.215Z,1014.91
2022-09-10T17:08:43.427Z,1014.97
2022-09-10T17:13:45.521Z,1015.01
2022-09-10T17:18:44.750Z,1015.03
2022-09-10T17:23:45.843Z,1015.00
2022-09-10T17:28:47.065Z,1015.03
2022-09-10T17:33:48.166Z,1015.03
2022-09-10T17:38:49.444Z,1015.02
2022-09-10T17:43:50.703Z,1015.10
2022-09-10T17:48:51.956Z,1015.14
2022-09-10T17:53:54.050Z,1015.16
2022-09-10T17:58:53.295Z,1015.26
2022-09-10T18:03:55.409Z,1015.27
2022-09-10T18:08:53.656Z,1015.30
2022-09-10T18:13:54.940Z,1015.44
2022-09-10T18:18:56.139Z,1015.63
2022-09-10T18:23:57.399Z,1015.66
2022-09-10T18:28:58.972Z,1015.74
2022-09-10T18:33:58.425Z,1015.82
2022-09-10T18:38:59.774Z,1015.91
2022-09-10T18:44:01.241Z,1016.01
2022-09-10T18:49:00.647Z,1016.05
2022-09-10T18:54:02.077Z,1016.16
2022-09-10T18:59:04.328Z,1016.21
2022-09-10T19:04:04.645Z,1016.36
2022-09-10T19:09:03.762Z,1016.35
2022-09-10T19:14:04.908Z,1016.46
2022-09-10T19:19:06.289Z,1016.35
2022-09-10T19:24:08.526Z,1016.49
2022-09-10T19:29:07.789Z,1016.47
2022-09-10T19:34:09.266Z,1016.43
2022-09-10T19:39:09.407Z,1016.47
2022-09-10T19:44:08.771Z,1016.45
2022-09-10T19:49:10.084Z,1016.44
2022-09-10T19:54:11.344Z,1016.46
2022-09-10T19:59:12.590Z,1016.51
2022-09-10T20:04:13.828Z,1016.49
2022-09-10T20:09:15.059Z,1016.54
2022-09-10T20:14:17.305Z,1016.59
2022-09-10T20:19:17.493Z,1016.67
2022-09-10T20:24:17.638Z,1016.66
2022-09-10T20:29:17.740Z,1016.65
2022-09-10T20:34:16.850Z,1016.64
2022-09-10T20:39:17.995Z,1016.57
2022-09-10T20:44:19.116Z,1016.56
2022-09-10T20:49:20.405Z,1016.61
2022-09-10T20:54:21.613Z,1016.55
2022-09-10T20:59:27.566Z,1016.62
2022-09-10T21:04:24.005Z,1016.64
2022-09-10T21:09:23.122Z,1016.66
2022-09-10T21:14:24.213Z,1016.68
2022-09-10T21:19:27.319Z,1016.61
2022-09-10T21:24:26.415Z,1016.62
2022-09-10T21:29:28.552Z,1016.68
2022-09-10T21:34:27.811Z,1016.71
2022-09-10T21:39:28.900Z,1016.66
2022-09-10T21:44:30.128Z,1016.69
2022-09-10T21:49:31.346Z,1016.60
2022-09-10T21:54:32.536Z,1016.72
2022-09-10T21:59:33.643Z,1016.65
2022-09-10T22:04:35.757Z,1016.71
2022-09-10T22:09:36.061Z,1016.72
2022-09-10T22:14:35.216Z,1016.69
2022-09-10T22:19:36.391Z,1016.73
2022-09-10T22:24:37.517Z,1016.72
2022-09-10T22:29:39.834Z,1016.77
2022-09-10T22:34:40.971Z,1016.89
2022-09-10T22:39:41.114Z,1016.88
2022-09-10T22:44:40.299Z,1016.89
2022-09-10T22:49:41.426Z,1016.94
2022-09-10T22:54:42.515Z,1016.93
2022-09-10T22:59:44.624Z,1017.03
2022-09-10T23:04:43.760Z,1017.06
2022-09-10T23:09:45.010Z,1017.08
2022-09-10T23:14:46.148Z,1017.17
2022-09-10T23:19:47.229Z,1017.12
2022-09-10T23:24:48.319Z,1017.13
2022-09-10T23:29:49.592Z,1017.17
2022-09-10T23:34:50.741Z,1017.18
2022-09-10T23:39:51.878Z,1017.27
2022-09-10T23:44:53.999Z,1017.27
2022-09-10T23:49:54.121Z,1017.18
2022-09-10T23:54:53.178Z,1017.29
2022-09-10T23:59:54.281Z,1017.13
